sensor_id;sensor_type;location;lat;lon;timestamp;P1;durP1;ratioP1;P2;durP2;ratioP2
38591;SDS011;24356;48.460;11.450;2022-12-07T00:03:37;17.77;;;10.25;;
38591;SDS011;24356;48.460;11.450;2022-12-07T00:06:04;14.95;;;9.13;;
38591;SDS011;24356;48.460;11.450;2022-12-07T00:08:31;15.63;;;9.38;;
38591;SDS011;24356;48.460;11.450;2022-12-07T00:11:01;17.42;;;9.00;;
38591;SDS011;24356;48.460;11.450;2022-12-07T00:13:33;16.45;;;9.55;;
38591;SDS011;24356;48.460;11.450;2022-12-07T00:16:00;14.27;;;8.50;;
38591;SDS011;24356;48.460;11.450;2022-12-07T00:18:30;14.35;;;8.57;;
38591;SDS011;24356;48.460;11.450;2022-12-07T00:21:13;14.35;;;8.57;;
38591;SDS011;24356;48.460;11.450;2022-12-07T00:23:42;17.85;;;9.40;;
38591;SDS011;24356;48.460;11.450;2022-12-07T00:26:11;15.82;;;8.98;;
38591;SDS011;24356;48.460;11.450;2022-12-07T00:28:40;16.13;;;8.60;;
38591;SDS011;24356;48.460;11.450;2022-12-07T00:31:10;16.58;;;8.68;;
38591;SDS011;24356;48.460;11.450;2022-12-07T00:33:37;15.05;;;8.95;;
38591;SDS011;24356;48.460;11.450;2022-12-07T00:36:04;13.65;;;8.27;;
38591;SDS011;24356;48.460;11.450;2022-12-07T00:38:33;16.38;;;8.73;;
38591;SDS011;24356;48.460;11.450;2022-12-07T00:41:04;13.52;;;8.48;;
38591;SDS011;24356;48.460;11.450;2022-12-07T00:43:32;16.05;;;9.18;;
38591;SDS011;24356;48.460;11.450;2022-12-07T00:45:58;15.50;;;9.02;;
38591;SDS011;24356;48.460;11.450;2022-12-07T00:48:24;18.77;;;8.90;;
38591;SDS011;24356;48.460;11.450;2022-12-07T00:50:50;16.08;;;9.75;;
38591;SDS011;24356;48.460;11.450;2022-12-07T00:53:16;16.95;;;9.30;;
38591;SDS011;24356;48.460;11.450;2022-12-07T00:55:43;15.68;;;8.15;;
38591;SDS011;24356;48.460;11.450;2022-12-07T00:58:10;13.98;;;7.90;;
38591;SDS011;24356;48.460;11.450;2022-12-07T01:00:37;13.52;;;8.13;;
38591;SDS011;24356;48.460;11.450;2022-12-07T01:03:05;14.40;;;8.52;;
38591;SDS011;24356;48.460;11.450;2022-12-07T01:05:32;14.23;;;8.27;;
38591;SDS011;24356;48.460;11.450;2022-12-07T01:07:58;15.93;;;9.73;;
38591;SDS011;24356;48.460;11.450;2022-12-07T01:10:24;17.27;;;8.98;;
38591;SDS011;24356;48.460;11.450;2022-12-07T01:12:51;14.05;;;8.50;;
38591;SDS011;24356;48.460;11.450;2022-12-07T01:15:16;15.38;;;9.48;;
38591;SDS011;24356;48.460;11.450;2022-12-07T01:17:42;13.63;;;8.32;;
38591;SDS011;24356;48.460;11.450;2022-12-07T01:20:08;15.18;;;8.27;;
38591;SDS011;24356;48.460;11.450;2022-12-07T01:22:37;15.82;;;8.48;;
38591;SDS011;24356;48.460;11.450;2022-12-07T01:25:05;13.23;;;8.73;;
38591;SDS011;24356;48.460;11.450;2022-12-07T01:27:32;15.02;;;9.20;;
38591;SDS011;24356;48.460;11.450;2022-12-07T01:29:58;15.48;;;9.57;;
38591;SDS011;24356;48.460;11.450;2022-12-07T01:32:24;11.82;;;7.75;;
38591;SDS011;24356;48.460;11.450;2022-12-07T01:34:50;15.60;;;9.02;;
38591;SDS011;24356;48.460;11.450;2022-12-07T01:37:16;13.48;;;8.25;;
38591;SDS011;24356;48.460;11.450;2022-12-07T01:39:41;18.63;;;9.65;;
38591;SDS011;24356;48.460;11.450;2022-12-07T01:42:09;15.23;;;9.27;;
38591;SDS011;24356;48.460;11.450;2022-12-07T01:45:16;15.45;;;9.07;;
38591;SDS011;24356;48.460;11.450;2022-12-07T01:47:50;15.27;;;8.27;;
38591;SDS011;24356;48.460;11.450;2022-12-07T01:50:18;15.80;;;9.07;;
38591;SDS011;24356;48.460;11.450;2022-12-07T01:52:45;16.33;;;9.73;;
38591;SDS011;24356;48.460;11.450;2022-12-07T01:55:15;14.10;;;8.35;;
38591;SDS011;24356;48.460;11.450;2022-12-07T01:57:43;14.90;;;8.43;;
38591;SDS011;24356;48.460;11.450;2022-12-07T02:00:14;17.73;;;9.45;;
38591;SDS011;24356;48.460;11.450;2022-12-07T02:02:43;15.98;;;9.23;;
38591;SDS011;24356;48.460;11.450;2022-12-07T02:05:30;14.30;;;8.10;;
38591;SDS011;24356;48.460;11.450;2022-12-07T02:07:57;16.02;;;9.45;;
38591;SDS011;24356;48.460;11.450;2022-12-07T02:10:25;14.27;;;8.48;;
38591;SDS011;24356;48.460;11.450;2022-12-07T02:13:04;14.10;;;8.73;;
38591;SDS011;24356;48.460;11.450;2022-12-07T02:21:33;16.40;;;9.57;;
38591;SDS011;24356;48.460;11.450;2022-12-07T02:27:07;15.40;;;9.27;;
38591;SDS011;24356;48.460;11.450;2022-12-07T02:35:39;15.55;;;8.65;;
38591;SDS011;24356;48.460;11.450;2022-12-07T02:38:21;16.40;;;9.25;;
38591;SDS011;24356;48.460;11.450;2022-12-07T02:41:06;19.55;;;9.43;;
38591;SDS011;24356;48.460;11.450;2022-12-07T02:43:45;17.98;;;9.52;;
38591;SDS011;24356;48.460;11.450;2022-12-07T02:49:16;17.17;;;8.93;;
38591;SDS011;24356;48.460;11.450;2022-12-07T02:51:42;14.60;;;8.43;;
38591;SDS011;24356;48.460;11.450;2022-12-07T02:54:14;13.35;;;7.85;;
38591;SDS011;24356;48.460;11.450;2022-12-07T02:59:29;17.80;;;10.05;;
38591;SDS011;24356;48.460;11.450;2022-12-07T03:10:42;16.52;;;8.80;;
38591;SDS011;24356;48.460;11.450;2022-12-07T03:15:59;20.55;;;9.60;;
38591;SDS011;24356;48.460;11.450;2022-12-07T03:18:31;17.92;;;9.73;;
38591;SDS011;24356;48.460;11.450;2022-12-07T03:21:04;18.27;;;9.98;;
38591;SDS011;24356;48.460;11.450;2022-12-07T03:23:35;17.58;;;10.10;;
38591;SDS011;24356;48.460;11.450;2022-12-07T03:26:02;19.38;;;10.65;;
38591;SDS011;24356;48.460;11.450;2022-12-07T03:28:32;18.75;;;9.98;;
38591;SDS011;24356;48.460;11.450;2022-12-07T03:31:10;18.40;;;10.32;;
38591;SDS011;24356;48.460;11.450;2022-12-07T03:36:52;16.38;;;9.18;;
38591;SDS011;24356;48.460;11.450;2022-12-07T03:39:49;18.75;;;10.23;;
38591;SDS011;24356;48.460;11.450;2022-12-07T03:42:16;21.27;;;10.90;;
38591;SDS011;24356;48.460;11.450;2022-12-07T03:44:43;18.70;;;10.38;;
38591;SDS011;24356;48.460;11.450;2022-12-07T03:50:06;15.60;;;9.70;;
38591;SDS011;24356;48.460;11.450;2022-12-07T03:55:12;18.30;;;10.13;;
38591;SDS011;24356;48.460;11.450;2022-12-07T03:57:43;17.88;;;9.98;;
38591;SDS011;24356;48.460;11.450;2022-12-07T04:00:12;18.90;;;10.07;;
38591;SDS011;24356;48.460;11.450;2022-12-07T04:02:38;18.98;;;10.85;;
38591;SDS011;24356;48.460;11.450;2022-12-07T04:05:05;16.65;;;9.20;;
38591;SDS011;24356;48.460;11.450;2022-12-07T04:07:32;17.35;;;9.85;;
38591;SDS011;24356;48.460;11.450;2022-12-07T04:09:57;20.50;;;10.65;;
38591;SDS011;24356;48.460;11.450;2022-12-07T04:12:23;20.25;;;10.77;;
38591;SDS011;24356;48.460;11.450;2022-12-07T04:14:49;17.55;;;9.75;;
38591;SDS011;24356;48.460;11.450;2022-12-07T04:17:15;18.83;;;11.15;;
38591;SDS011;24356;48.460;11.450;2022-12-07T04:19:40;19.67;;;10.13;;
38591;SDS011;24356;48.460;11.450;2022-12-07T04:22:06;20.25;;;10.45;;
38591;SDS011;24356;48.460;11.450;2022-12-07T04:24:32;20.40;;;10.05;;
38591;SDS011;24356;48.460;11.450;2022-12-07T04:26:58;20.23;;;11.25;;
38591;SDS011;24356;48.460;11.450;2022-12-07T04:29:24;21.05;;;11.23;;
38591;SDS011;24356;48.460;11.450;2022-12-07T04:31:50;20.15;;;11.10;;
38591;SDS011;24356;48.460;11.450;2022-12-07T04:34:17;19.73;;;11.00;;
38591;SDS011;24356;48.460;11.450;2022-12-07T04:36:43;18.63;;;10.95;;
38591;SDS011;24356;48.460;11.450;2022-12-07T04:39:17;21.30;;;11.25;;
38591;SDS011;24356;48.460;11.450;2022-12-07T04:41:54;20.13;;;12.02;;
38591;SDS011;24356;48.460;11.450;2022-12-07T04:44:20;19.50;;;11.50;;
38591;SDS011;24356;48.460;11.450;2022-12-07T04:46:47;21.42;;;11.50;;
38591;SDS011;24356;48.460;11.450;2022-12-07T04:49:13;21.90;;;12.10;;
38591;SDS011;24356;48.460;11.450;2022-12-07T04:51:40;20.85;;;11.40;;
38591;SDS011;24356;48.460;11.450;2022-12-07T04:54:07;20.27;;;11.40;;
38591;SDS011;24356;48.460;11.450;2022-12-07T04:56:34;23.13;;;12.75;;
38591;SDS011;24356;48.460;11.450;2022-12-07T04:59:00;22.73;;;13.00;;
38591;SDS011;24356;48.460;11.450;2022-12-07T05:01:26;21.65;;;12.38;;
38591;SDS011;24356;48.460;11.450;2022-12-07T05:03:52;19.90;;;11.73;;
38591;SDS011;24356;48.460;11.450;2022-12-07T05:06:18;19.70;;;11.60;;
38591;SDS011;24356;48.460;11.450;2022-12-07T05:08:44;24.38;;;12.80;;
38591;SDS011;24356;48.460;11.450;2022-12-07T05:11:09;26.02;;;13.60;;
38591;SDS011;24356;48.460;11.450;2022-12-07T05:13:54;20.77;;;11.85;;
38591;SDS011;24356;48.460;11.450;2022-12-07T05:16:22;21.42;;;12.18;;
38591;SDS011;24356;48.460;11.450;2022-12-07T05:18:47;26.73;;;13.88;;
38591;SDS011;24356;48.460;11.450;2022-12-07T05:21:13;24.73;;;13.43;;
38591;SDS011;24356;48.460;11.450;2022-12-07T05:23:40;25.77;;;13.48;;
38591;SDS011;24356;48.460;11.450;2022-12-07T05:26:07;22.00;;;12.43;;
38591;SDS011;24356;48.460;11.450;2022-12-07T05:28:32;23.30;;;12.23;;
38591;SDS011;24356;48.460;11.450;2022-12-07T05:30:58;23.25;;;12.82;;
38591;SDS011;24356;48.460;11.450;2022-12-07T05:33:24;21.40;;;12.25;;
38591;SDS011;24356;48.460;11.450;2022-12-07T05:35:50;25.05;;;13.10;;
38591;SDS011;24356;48.460;11.450;2022-12-07T05:38:15;23.38;;;13.57;;
38591;SDS011;24356;48.460;11.450;2022-12-07T05:40:41;22.50;;;13.02;;
38591;SDS011;24356;48.460;11.450;2022-12-07T05:43:06;26.27;;;14.13;;
38591;SDS011;24356;48.460;11.450;2022-12-07T05:45:32;22.98;;;12.80;;
38591;SDS011;24356;48.460;11.450;2022-12-07T05:47:58;22.73;;;12.65;;
38591;SDS011;24356;48.460;11.450;2022-12-07T05:50:23;23.60;;;12.82;;
38591;SDS011;24356;48.460;11.450;2022-12-07T05:52:49;24.40;;;13.63;;
38591;SDS011;24356;48.460;11.450;2022-12-07T05:55:15;22.45;;;11.88;;
38591;SDS011;24356;48.460;11.450;2022-12-07T05:57:40;26.08;;;14.00;;
38591;SDS011;24356;48.460;11.450;2022-12-07T06:00:26;23.85;;;13.23;;
38591;SDS011;24356;48.460;11.450;2022-12-07T06:02:51;25.75;;;13.95;;
38591;SDS011;24356;48.460;11.450;2022-12-07T06:05:17;24.08;;;13.13;;
38591;SDS011;24356;48.460;11.450;2022-12-07T06:07:43;24.73;;;13.55;;
38591;SDS011;24356;48.460;11.450;2022-12-07T06:10:08;23.00;;;13.10;;
38591;SDS011;24356;48.460;11.450;2022-12-07T06:12:34;21.80;;;12.55;;
38591;SDS011;24356;48.460;11.450;2022-12-07T06:15:00;27.35;;;13.85;;
38591;SDS011;24356;48.460;11.450;2022-12-07T06:17:26;23.17;;;12.98;;
38591;SDS011;24356;48.460;11.450;2022-12-07T06:19:51;23.30;;;13.20;;
38591;SDS011;24356;48.460;11.450;2022-12-07T06:22:17;24.25;;;13.75;;
38591;SDS011;24356;48.460;11.450;2022-12-07T06:24:43;22.20;;;12.55;;
38591;SDS011;24356;48.460;11.450;2022-12-07T06:27:09;25.45;;;13.70;;
38591;SDS011;24356;48.460;11.450;2022-12-07T06:29:35;22.83;;;12.77;;
38591;SDS011;24356;48.460;11.450;2022-12-07T06:32:02;21.13;;;12.43;;
38591;SDS011;24356;48.460;11.450;2022-12-07T06:34:28;21.55;;;12.45;;
38591;SDS011;24356;48.460;11.450;2022-12-07T06:36:54;22.70;;;11.93;;
38591;SDS011;24356;48.460;11.450;2022-12-07T06:39:24;21.80;;;12.18;;
38591;SDS011;24356;48.460;11.450;2022-12-07T06:41:51;22.67;;;12.25;;
38591;SDS011;24356;48.460;11.450;2022-12-07T06:44:17;22.83;;;12.68;;
38591;SDS011;24356;48.460;11.450;2022-12-07T06:46:43;20.48;;;12.57;;
38591;SDS011;24356;48.460;11.450;2022-12-07T06:49:09;21.77;;;12.50;;
38591;SDS011;24356;48.460;11.450;2022-12-07T06:51:35;21.15;;;12.45;;
38591;SDS011;24356;48.460;11.450;2022-12-07T06:54:02;24.15;;;13.13;;
38591;SDS011;24356;48.460;11.450;2022-12-07T06:56:29;24.58;;;13.82;;
38591;SDS011;24356;48.460;11.450;2022-12-07T06:58:54;24.15;;;13.00;;
38591;SDS011;24356;48.460;11.450;2022-12-07T07:01:20;24.58;;;12.50;;
38591;SDS011;24356;48.460;11.450;2022-12-07T07:03:46;21.98;;;12.98;;
38591;SDS011;24356;48.460;11.450;2022-12-07T07:06:12;23.45;;;13.15;;
38591;SDS011;24356;48.460;11.450;2022-12-07T07:08:38;23.15;;;12.00;;
38591;SDS011;24356;48.460;11.450;2022-12-07T07:11:04;22.63;;;12.38;;
38591;SDS011;24356;48.460;11.450;2022-12-07T07:13:31;22.38;;;12.10;;
38591;SDS011;24356;48.460;11.450;2022-12-07T07:15:57;26.58;;;13.82;;
38591;SDS011;24356;48.460;11.450;2022-12-07T07:18:23;24.08;;;12.63;;
38591;SDS011;24356;48.460;11.450;2022-12-07T07:20:50;26.08;;;12.88;;
38591;SDS011;24356;48.460;11.450;2022-12-07T07:23:16;24.23;;;13.13;;
38591;SDS011;24356;48.460;11.450;2022-12-07T07:25:42;24.00;;;13.32;;
38591;SDS011;24356;48.460;11.450;2022-12-07T07:28:08;25.30;;;13.80;;
38591;SDS011;24356;48.460;11.450;2022-12-07T07:30:34;25.02;;;13.13;;
38591;SDS011;24356;48.460;11.450;2022-12-07T07:33:00;22.77;;;12.60;;
38591;SDS011;24356;48.460;11.450;2022-12-07T07:35:27;21.17;;;11.98;;
38591;SDS011;24356;48.460;11.450;2022-12-07T07:37:56;23.50;;;11.90;;
38591;SDS011;24356;48.460;11.450;2022-12-07T07:40:22;27.17;;;14.05;;
38591;SDS011;24356;48.460;11.450;2022-12-07T07:42:51;24.70;;;13.30;;
38591;SDS011;24356;48.460;11.450;2022-12-07T07:45:18;26.33;;;13.63;;
38591;SDS011;24356;48.460;11.450;2022-12-07T07:47:45;24.27;;;13.05;;
38591;SDS011;24356;48.460;11.450;2022-12-07T07:50:10;24.23;;;13.65;;
38591;SDS011;24356;48.460;11.450;2022-12-07T07:52:36;22.90;;;12.73;;
38591;SDS011;24356;48.460;11.450;2022-12-07T07:55:02;30.30;;;14.45;;
38591;SDS011;24356;48.460;11.450;2022-12-07T07:57:28;25.88;;;13.35;;
38591;SDS011;24356;48.460;11.450;2022-12-07T07:59:54;27.35;;;12.77;;
38591;SDS011;24356;48.460;11.450;2022-12-07T08:02:19;23.00;;;12.45;;
38591;SDS011;24356;48.460;11.450;2022-12-07T08:04:46;24.60;;;12.75;;
38591;SDS011;24356;48.460;11.450;2022-12-07T08:07:12;26.30;;;13.20;;
38591;SDS011;24356;48.460;11.450;2022-12-07T08:09:39;29.10;;;14.93;;
38591;SDS011;24356;48.460;11.450;2022-12-07T08:12:05;29.77;;;15.23;;
38591;SDS011;24356;48.460;11.450;2022-12-07T08:14:31;28.70;;;14.32;;
38591;SDS011;24356;48.460;11.450;2022-12-07T08:16:57;27.92;;;14.32;;
38591;SDS011;24356;48.460;11.450;2022-12-07T08:19:24;27.00;;;13.90;;
38591;SDS011;24356;48.460;11.450;2022-12-07T08:21:49;25.92;;;13.63;;
38591;SDS011;24356;48.460;11.450;2022-12-07T08:24:15;27.90;;;14.48;;
38591;SDS011;24356;48.460;11.450;2022-12-07T08:26:41;29.40;;;14.15;;
38591;SDS011;24356;48.460;11.450;2022-12-07T08:29:07;25.50;;;14.10;;
38591;SDS011;24356;48.460;11.450;2022-12-07T08:31:33;26.70;;;13.10;;
38591;SDS011;24356;48.460;11.450;2022-12-07T08:33:59;21.40;;;11.70;;
38591;SDS011;24356;48.460;11.450;2022-12-07T08:36:26;21.70;;;11.70;;
38591;SDS011;24356;48.460;11.450;2022-12-07T08:38:51;19.52;;;10.75;;
38591;SDS011;24356;48.460;11.450;2022-12-07T08:41:17;22.45;;;11.75;;
38591;SDS011;24356;48.460;11.450;2022-12-07T08:43:43;27.55;;;11.35;;
38591;SDS011;24356;48.460;11.450;2022-12-07T08:51:47;21.92;;;12.18;;
38591;SDS011;24356;48.460;11.450;2022-12-07T08:54:14;28.33;;;12.15;;
38591;SDS011;24356;48.460;11.450;2022-12-07T08:56:42;23.27;;;11.48;;
38591;SDS011;24356;48.460;11.450;2022-12-07T08:59:08;22.30;;;11.63;;
38591;SDS011;24356;48.460;11.450;2022-12-07T09:01:34;25.27;;;12.90;;
38591;SDS011;24356;48.460;11.450;2022-12-07T09:04:00;20.45;;;11.15;;
38591;SDS011;24356;48.460;11.450;2022-12-07T09:06:26;23.25;;;12.23;;
38591;SDS011;24356;48.460;11.450;2022-12-07T09:08:53;26.60;;;12.95;;
38591;SDS011;24356;48.460;11.450;2022-12-07T09:11:23;23.02;;;11.63;;
38591;SDS011;24356;48.460;11.450;2022-12-07T09:13:48;25.00;;;13.45;;
38591;SDS011;24356;48.460;11.450;2022-12-07T09:16:14;28.77;;;14.90;;
38591;SDS011;24356;48.460;11.450;2022-12-07T09:18:39;25.85;;;13.90;;
38591;SDS011;24356;48.460;11.450;2022-12-07T09:21:05;23.92;;;13.18;;
38591;SDS011;24356;48.460;11.450;2022-12-07T09:23:31;26.35;;;13.77;;
38591;SDS011;24356;48.460;11.450;2022-12-07T09:26:00;27.38;;;13.68;;
38591;SDS011;24356;48.460;11.450;2022-12-07T09:28:26;26.17;;;13.55;;
38591;SDS011;24356;48.460;11.450;2022-12-07T09:30:52;24.92;;;13.52;;
38591;SDS011;24356;48.460;11.450;2022-12-07T09:33:17;27.83;;;14.65;;
38591;SDS011;24356;48.460;11.450;2022-12-07T09:35:48;27.88;;;14.35;;
38591;SDS011;24356;48.460;11.450;2022-12-07T09:38:15;24.52;;;14.15;;
38591;SDS011;24356;48.460;11.450;2022-12-07T09:40:41;29.20;;;15.05;;
38591;SDS011;24356;48.460;11.450;2022-12-07T09:43:14;32.97;;;16.45;;
38591;SDS011;24356;48.460;11.450;2022-12-07T09:45:43;36.88;;;16.67;;
38591;SDS011;24356;48.460;11.450;2022-12-07T09:48:17;44.40;;;20.25;;
38591;SDS011;24356;48.460;11.450;2022-12-07T09:50:44;30.02;;;15.30;;
38591;SDS011;24356;48.460;11.450;2022-12-07T09:53:30;25.48;;;13.35;;
38591;SDS011;24356;48.460;11.450;2022-12-07T09:56:00;22.55;;;12.27;;
38591;SDS011;24356;48.460;11.450;2022-12-07T09:58:28;22.85;;;12.82;;
38591;SDS011;24356;48.460;11.450;2022-12-07T10:01:05;26.40;;;12.95;;
38591;SDS011;24356;48.460;11.450;2022-12-07T10:06:17;24.40;;;13.15;;
38591;SDS011;24356;48.460;11.450;2022-12-07T10:08:43;26.70;;;13.20;;
38591;SDS011;24356;48.460;11.450;2022-12-07T10:11:09;25.42;;;12.85;;
38591;SDS011;24356;48.460;11.450;2022-12-07T10:16:35;22.60;;;12.13;;
38591;SDS011;24356;48.460;11.450;2022-12-07T10:19:20;19.90;;;11.02;;
38591;SDS011;24356;48.460;11.450;2022-12-07T10:24:42;25.75;;;12.05;;
38591;SDS011;24356;48.460;11.450;2022-12-07T10:29:55;21.73;;;10.65;;
38591;SDS011;24356;48.460;11.450;2022-12-07T10:32:33;20.67;;;10.88;;
38591;SDS011;24356;48.460;11.450;2022-12-07T10:35:34;18.73;;;10.07;;
38591;SDS011;24356;48.460;11.450;2022-12-07T10:37:54;23.63;;;13.70;;
38591;SDS011;24356;48.460;11.450;2022-12-07T10:42:59;20.23;;;10.35;;
38591;SDS011;24356;48.460;11.450;2022-12-07T10:48:24;16.73;;;10.15;;
38591;SDS011;24356;48.460;11.450;2022-12-07T10:51:05;18.02;;;10.02;;
38591;SDS011;24356;48.460;11.450;2022-12-07T10:59:41;12.60;;;7.72;;
38591;SDS011;24356;48.460;11.450;2022-12-07T11:07:48;14.18;;;7.72;;
38591;SDS011;24356;48.460;11.450;2022-12-07T11:16:24;14.85;;;7.22;;
38591;SDS011;24356;48.460;11.450;2022-12-07T11:24:32;14.23;;;7.20;;
38591;SDS011;24356;48.460;11.450;2022-12-07T11:30:03;12.82;;;6.97;;
38591;SDS011;24356;48.460;11.450;2022-12-07T11:41:22;13.52;;;7.68;;
38591;SDS011;24356;48.460;11.450;2022-12-07T11:43:54;12.95;;;7.10;;
38591;SDS011;24356;48.460;11.450;2022-12-07T11:46:29;11.85;;;7.15;;
38591;SDS011;24356;48.460;11.450;2022-12-07T11:49:24;11.93;;;6.82;;
38591;SDS011;24356;48.460;11.450;2022-12-07T11:51:58;12.30;;;6.65;;
38591;SDS011;24356;48.460;11.450;2022-12-07T11:54:28;19.23;;;9.45;;
38591;SDS011;24356;48.460;11.450;2022-12-07T11:57:01;13.13;;;6.60;;
38591;SDS011;24356;48.460;11.450;2022-12-07T11:59:35;12.43;;;6.95;;
38591;SDS011;24356;48.460;11.450;2022-12-07T12:02:11;11.32;;;6.78;;
38591;SDS011;24356;48.460;11.450;2022-12-07T12:07:17;16.15;;;7.20;;
38591;SDS011;24356;48.460;11.450;2022-12-07T12:09:52;15.98;;;7.32;;
38591;SDS011;24356;48.460;11.450;2022-12-07T12:12:29;47.95;;;14.82;;
38591;SDS011;24356;48.460;11.450;2022-12-07T12:23:44;14.10;;;7.28;;
38591;SDS011;24356;48.460;11.450;2022-12-07T12:26:21;14.25;;;7.35;;
38591;SDS011;24356;48.460;11.450;2022-12-07T12:28:58;14.15;;;7.22;;
38591;SDS011;24356;48.460;11.450;2022-12-07T12:33:56;17.52;;;8.20;;
38591;SDS011;24356;48.460;11.450;2022-12-07T12:36:24;15.10;;;7.57;;
38591;SDS011;24356;48.460;11.450;2022-12-07T12:39:11;13.55;;;7.53;;
38591;SDS011;24356;48.460;11.450;2022-12-07T12:51:58;16.52;;;7.97;;
38591;SDS011;24356;48.460;11.450;2022-12-07T12:54:28;13.55;;;7.15;;
38591;SDS011;24356;48.460;11.450;2022-12-07T13:05:01;13.15;;;6.97;;
38591;SDS011;24356;48.460;11.450;2022-12-07T13:15:53;15.52;;;7.75;;
38591;SDS011;24356;48.460;11.450;2022-12-07T13:18:35;12.32;;;6.68;;
38591;SDS011;24356;48.460;11.450;2022-12-07T13:26:22;13.20;;;7.30;;
38591;SDS011;24356;48.460;11.450;2022-12-07T13:31:35;12.80;;;6.20;;
38591;SDS011;24356;48.460;11.450;2022-12-07T13:37:02;13.55;;;7.70;;
38591;SDS011;24356;48.460;11.450;2022-12-07T13:39:55;14.52;;;7.22;;
38591;SDS011;24356;48.460;11.450;2022-12-07T13:42:26;11.95;;;6.93;;
38591;SDS011;24356;48.460;11.450;2022-12-07T13:44:54;12.38;;;6.82;;
38591;SDS011;24356;48.460;11.450;2022-12-07T13:47:31;13.52;;;7.32;;
38591;SDS011;24356;48.460;11.450;2022-12-07T13:50:01;19.02;;;9.68;;
38591;SDS011;24356;48.460;11.450;2022-12-07T13:52:45;18.15;;;7.70;;
38591;SDS011;24356;48.460;11.450;2022-12-07T13:55:16;13.27;;;7.55;;
38591;SDS011;24356;48.460;11.450;2022-12-07T13:57:42;14.93;;;6.60;;
38591;SDS011;24356;48.460;11.450;2022-12-07T14:00:16;24.35;;;7.78;;
38591;SDS011;24356;48.460;11.450;2022-12-07T14:03:44;17.92;;;7.18;;
38591;SDS011;24356;48.460;11.450;2022-12-07T14:05:39;17.60;;;7.22;;
38591;SDS011;24356;48.460;11.450;2022-12-07T14:10:36;16.67;;;7.68;;
38591;SDS011;24356;48.460;11.450;2022-12-07T14:15:56;17.83;;;7.90;;
38591;SDS011;24356;48.460;11.450;2022-12-07T14:18:28;16.75;;;7.53;;
38591;SDS011;24356;48.460;11.450;2022-12-07T14:23:39;14.63;;;7.00;;
38591;SDS011;24356;48.460;11.450;2022-12-07T14:26:15;16.20;;;6.85;;
38591;SDS011;24356;48.460;11.450;2022-12-07T14:28:44;15.35;;;6.90;;
38591;SDS011;24356;48.460;11.450;2022-12-07T14:33:40;12.52;;;6.40;;
38591;SDS011;24356;48.460;11.450;2022-12-07T14:36:13;13.75;;;6.22;;
38591;SDS011;24356;48.460;11.450;2022-12-07T14:38:39;11.35;;;5.93;;
38591;SDS011;24356;48.460;11.450;2022-12-07T14:41:10;12.00;;;6.43;;
38591;SDS011;24356;48.460;11.450;2022-12-07T14:43:58;10.85;;;6.18;;
38591;SDS011;24356;48.460;11.450;2022-12-07T14:46:24;8.98;;;5.20;;
38591;SDS011;24356;48.460;11.450;2022-12-07T14:48:50;13.15;;;5.90;;
38591;SDS011;24356;48.460;11.450;2022-12-07T14:51:17;14.90;;;7.22;;
38591;SDS011;24356;48.460;11.450;2022-12-07T14:53:44;15.25;;;7.53;;
38591;SDS011;24356;48.460;11.450;2022-12-07T14:56:13;18.88;;;7.40;;
38591;SDS011;24356;48.460;11.450;2022-12-07T14:58:40;21.55;;;9.35;;
38591;SDS011;24356;48.460;11.450;2022-12-07T15:01:06;14.45;;;6.65;;
38591;SDS011;24356;48.460;11.450;2022-12-07T15:03:32;10.38;;;5.78;;
38591;SDS011;24356;48.460;11.450;2022-12-07T15:05:59;12.60;;;6.15;;
38591;SDS011;24356;48.460;11.450;2022-12-07T15:08:26;14.10;;;5.88;;
38591;SDS011;24356;48.460;11.450;2022-12-07T15:10:51;11.02;;;5.55;;
38591;SDS011;24356;48.460;11.450;2022-12-07T15:13:17;13.32;;;5.90;;
38591;SDS011;24356;48.460;11.450;2022-12-07T15:16:01;13.45;;;5.80;;
38591;SDS011;24356;48.460;11.450;2022-12-07T15:18:27;10.13;;;5.40;;
38591;SDS011;24356;48.460;11.450;2022-12-07T15:20:54;13.35;;;5.82;;
38591;SDS011;24356;48.460;11.450;2022-12-07T15:23:20;10.07;;;5.40;;
38591;SDS011;24356;48.460;11.450;2022-12-07T15:25:47;11.20;;;5.82;;
38591;SDS011;24356;48.460;11.450;2022-12-07T15:28:14;9.43;;;5.35;;
38591;SDS011;24356;48.460;11.450;2022-12-07T15:30:41;10.77;;;5.85;;
38591;SDS011;24356;48.460;11.450;2022-12-07T15:33:09;9.70;;;5.45;;
38591;SDS011;24356;48.460;11.450;2022-12-07T15:35:39;11.00;;;6.10;;
38591;SDS011;24356;48.460;11.450;2022-12-07T15:38:06;13.63;;;6.82;;
38591;SDS011;24356;48.460;11.450;2022-12-07T15:40:31;11.38;;;6.30;;
38591;SDS011;24356;48.460;11.450;2022-12-07T15:42:57;13.75;;;7.28;;
38591;SDS011;24356;48.460;11.450;2022-12-07T15:45:23;14.98;;;7.03;;
38591;SDS011;24356;48.460;11.450;2022-12-07T15:47:49;17.77;;;7.88;;
38591;SDS011;24356;48.460;11.450;2022-12-07T15:50:15;18.83;;;8.68;;
38591;SDS011;24356;48.460;11.450;2022-12-07T15:52:41;17.05;;;7.95;;
38591;SDS011;24356;48.460;11.450;2022-12-07T15:55:08;20.20;;;7.82;;
38591;SDS011;24356;48.460;11.450;2022-12-07T15:57:35;19.02;;;8.30;;
38591;SDS011;24356;48.460;11.450;2022-12-07T16:00:03;12.35;;;6.20;;
38591;SDS011;24356;48.460;11.450;2022-12-07T16:02:30;11.05;;;5.80;;
38591;SDS011;24356;48.460;11.450;2022-12-07T16:04:56;14.93;;;6.85;;
38591;SDS011;24356;48.460;11.450;2022-12-07T16:07:22;19.33;;;7.10;;
38591;SDS011;24356;48.460;11.450;2022-12-07T16:09:47;12.75;;;6.72;;
38591;SDS011;24356;48.460;11.450;2022-12-07T16:12:14;14.02;;;6.68;;
38591;SDS011;24356;48.460;11.450;2022-12-07T16:14:40;14.32;;;6.45;;
38591;SDS011;24356;48.460;11.450;2022-12-07T16:17:07;13.90;;;6.40;;
38591;SDS011;24356;48.460;11.450;2022-12-07T16:19:35;13.65;;;6.15;;
38591;SDS011;24356;48.460;11.450;2022-12-07T16:22:02;12.73;;;6.22;;
38591;SDS011;24356;48.460;11.450;2022-12-07T16:24:29;14.43;;;6.32;;
38591;SDS011;24356;48.460;11.450;2022-12-07T16:26:56;13.80;;;6.50;;
38591;SDS011;24356;48.460;11.450;2022-12-07T16:29:22;13.60;;;6.53;;
38591;SDS011;24356;48.460;11.450;2022-12-07T16:31:48;11.95;;;6.13;;
38591;SDS011;24356;48.460;11.450;2022-12-07T16:34:14;11.25;;;5.90;;
38591;SDS011;24356;48.460;11.450;2022-12-07T16:36:41;12.95;;;6.53;;
38591;SDS011;24356;48.460;11.450;2022-12-07T16:39:08;13.15;;;6.10;;
38591;SDS011;24356;48.460;11.450;2022-12-07T16:41:33;20.70;;;6.60;;
38591;SDS011;24356;48.460;11.450;2022-12-07T16:44:03;20.38;;;6.88;;
38591;SDS011;24356;48.460;11.450;2022-12-07T16:46:33;26.38;;;6.78;;
38591;SDS011;24356;48.460;11.450;2022-12-07T16:49:01;35.33;;;10.40;;
38591;SDS011;24356;48.460;11.450;2022-12-07T16:51:27;27.35;;;10.50;;
38591;SDS011;24356;48.460;11.450;2022-12-07T16:53:53;26.40;;;8.48;;
38591;SDS011;24356;48.460;11.450;2022-12-07T16:56:19;19.23;;;8.55;;
38591;SDS011;24356;48.460;11.450;2022-12-07T16:58:46;15.30;;;6.85;;
38591;SDS011;24356;48.460;11.450;2022-12-07T17:01:17;20.38;;;7.35;;
38591;SDS011;24356;48.460;11.450;2022-12-07T17:03:47;14.65;;;6.70;;
38591;SDS011;24356;48.460;11.450;2022-12-07T17:06:20;14.30;;;6.45;;
38591;SDS011;24356;48.460;11.450;2022-12-07T17:08:47;16.17;;;6.57;;